Time;durP1;ratioP1;P1;durP2;ratioP2;P2;SDS_P1;SDS_P2;PMS_P1;PMS_P2;Temp;Humidity;BMP_temperature;BMP_pressure;BME280_temperature;BME280_humidity;BME280_pressure;Samples;Min_cycle;Max_cycle;Signal;HPM_P1;HPM_P2
2024/03/07 00:01:17;;;;;;;13.55;9.70;;;14.50;60.90;;;;;;4223603;28;20416;-45
2024/03/07 00:04:00;;;;;;;11.82;9.55;;;14.50;60.60;;;;;;4212264;27;20058;-46
2024/03/07 00:06:41;;;;;;;10.43;8.15;;;14.50;60.20;;;;;;4213610;27;20495;-47
2024/03/07 00:09:24;;;;;;;10.60;9.13;;;14.50;60.20;;;;;;4196782;28;20059;-45
2024/03/07 00:12:07;;;;;;;10.45;8.90;;;14.50;60.50;;;;;;4198398;28;20554;-47
2024/03/07 00:14:48;;;;;;;11.80;9.13;;;14.40;60.20;;;;;;4191501;28;20600;-47
2024/03/07 00:17:29;;;;;;;11.45;7.50;;;14.40;60.90;;;;;;4200360;27;20181;-49
2024/03/07 00:20:15;;;;;;;11.00;8.95;;;14.40;59.80;;;;;;4221768;27;20479;-43
2024/03/07 00:22:56;;;;;;;10.93;8.95;;;14.40;59.90;;;;;;4197250;28;20058;-44
2024/03/07 00:25:37;;;;;;;11.60;9.45;;;14.40;59.80;;;;;;4204840;28;20066;-44
2024/03/07 00:28:18;;;;;;;11.80;9.18;;;14.40;59.80;;;;;;4216611;27;20181;-43
2024/03/07 00:31:00;;;;;;;11.75;10.02;;;14.30;59.60;;;;;;4221409;28;20092;-45
2024/03/07 00:33:42;;;;;;;13.40;9.52;;;14.30;60.20;;;;;;4207219;28;20063;-47
2024/03/07 00:36:33;;;;;;;12.88;9.05;;;14.30;60.50;;;;;;4188765;28;20117;-46
2024/03/07 00:39:14;;;;;;;10.80;9.07;;;14.30;60.50;;;;;;4192081;28;20145;-43
2024/03/07 00:41:55;;;;;;;11.98;9.48;;;14.30;60.70;;;;;;4191146;28;20055;-48
2024/03/07 00:44:37;;;;;;;14.30;9.80;;;14.30;61.80;;;;;;4203768;28;20055;-47
2024/03/07 00:47:18;;;;;;;12.60;9.57;;;14.30;60.30;;;;;;4198159;27;20255;-48
2024/03/07 00:50:00;;;;;;;12.20;8.65;;;14.30;60.90;;;;;;4221948;27;20047;-47
2024/03/07 00:52:43;;;;;;;12.07;9.95;;;14.20;61.80;;;;;;4205842;28;20043;-47
2024/03/07 00:55:23;;;;;;;13.27;10.00;;;14.20;62.20;;;;;;4219420;27;20049;-46
2024/03/07 00:58:05;;;;;;;10.68;9.27;;;14.20;63.30;;;;;;4204322;28;20500;-48
2024/03/07 01:00:46;;;;;;;11.27;8.75;;;14.20;63.90;;;;;;4205474;28;20538;-47
2024/03/07 01:03:28;;;;;;;12.75;9.45;;;14.20;63.80;;;;;;4205575;28;20063;-47
2024/03/07 01:06:10;;;;;;;12.20;8.93;;;14.20;64.50;;;;;;4206762;28;20083;-45
2024/03/07 01:08:53;;;;;;;11.98;8.65;;;14.20;63.30;;;;;;4222774;28;20050;-48
2024/03/07 01:11:34;;;;;;;13.25;9.30;;;14.20;62.60;;;;;;4207527;28;20061;-49
2024/03/07 01:14:15;;;;;;;12.88;9.13;;;14.20;62.50;;;;;;4219241;27;20062;-48
2024/03/07 01:16:57;;;;;;;9.65;8.02;;;14.20;62.50;;;;;;4204762;28;20356;-43
2024/03/07 01:19:38;;;;;;;11.70;10.35;;;14.20;61.80;;;;;;4219251;27;20054;-45
2024/03/07 01:22:19;;;;;;;10.85;9.23;;;14.20;62.70;;;;;;4222290;27;20050;-45
2024/03/07 01:25:02;;;;;;;12.38;9.75;;;14.20;64.00;;;;;;4208626;27;20055;-46
2024/03/07 01:27:43;;;;;;;9.30;8.35;;;14.20;65.20;;;;;;4204030;28;20130;-44
2024/03/07 01:30:25;;;;;;;11.45;9.10;;;14.20;65.60;;;;;;4189748;28;20578;-46
2024/03/07 01:33:06;;;;;;;12.85;8.65;;;14.20;66.40;;;;;;4202240;28;20054;-49
2024/03/07 01:35:47;;;;;;;11.90;8.73;;;14.20;66.90;;;;;;4216255;27;20058;-48
2024/03/07 01:38:28;;;;;;;10.82;8.65;;;14.20;67.30;;;;;;4235665;27;20054;-45
2024/03/07 01:41:10;;;;;;;12.95;8.25;;;14.20;67.70;;;;;;4188040;28;20412;-50
2024/03/07 01:43:51;;;;;;;11.57;8.98;;;14.20;68.10;;;;;;4190634;28;20104;-52
2024/03/07 01:46:33;;;;;;;13.80;9.38;;;14.20;68.10;;;;;;4198087;28;20047;-49
2024/03/07 01:49:14;;;;;;;10.35;8.65;;;14.20;66.70;;;;;;4196803;28;20496;-49
2024/03/07 01:51:55;;;;;;;11.68;9.30;;;14.20;67.00;;;;;;4205956;28;20055;-50
2024/03/07 01:54:36;;;;;;;13.48;9.25;;;14.20;66.90;;;;;;4228153;27;20131;-49
2024/03/07 01:57:19;;;;;;;11.45;8.93;;;14.20;67.50;;;;;;4228128;27;20406;-49
2024/03/07 02:00:04;;;;;;;9.85;8.57;;;14.20;68.90;;;;;;4232707;27;20051;-49
2024/03/07 02:02:47;;;;;;;11.10;9.13;;;14.30;68.70;;;;;;4235014;27;20050;-51
2024/03/07 02:05:28;;;;;;;;;;;14.30;67.30;;;;;;4214118;27;20065;-50
2024/03/07 02:08:09;;;;;;;10.52;8.50;;;14.30;66.60;;;;;;4191003;28;19927;-49
2024/03/07 02:10:50;;;;;;;13.85;9.45;;;14.30;67.70;;;;;;4211927;27;20522;-50
2024/03/07 02:13:32;;;;;;;10.63;8.27;;;14.30;66.70;;;;;;4238625;27;20050;-50
2024/03/07 02:16:14;;;;;;;10.10;8.38;;;14.30;68.50;;;;;;4189411;28;20051;-49
2024/03/07 02:18:55;;;;;;;11.73;9.02;;;14.30;70.10;;;;;;4197504;28;20054;-51
2024/03/07 02:21:37;;;;;;;;;;;14.40;70.50;;;;;;4188613;28;20059;-49
2024/03/07 02:24:19;;;;;;;9.38;8.00;;;14.40;69.30;;;;;;4217752;27;19926;-49
2024/03/07 02:27:00;;;;;;;11.25;9.25;;;14.50;69.30;;;;;;4213636;27;20136;-49
2024/03/07 02:29:41;;;;;;;11.77;8.73;;;14.50;68.30;;;;;;4225532;27;20122;-50
2024/03/07 02:32:23;;;;;;;9.68;8.23;;;14.60;69.00;;;;;;4237209;27;20502;-48
2024/03/07 02:35:04;;;;;;;11.68;9.27;;;14.60;70.20;;;;;;4235378;27;20058;-48
2024/03/07 02:37:47;;;;;;;11.00;9.43;;;14.70;70.60;;;;;;4235059;27;20070;-49
2024/03/07 02:40:27;;;;;;;10.65;8.93;;;14.80;69.00;;;;;;4187737;28;20051;-52
2024/03/07 02:43:09;;;;;;;10.05;8.88;;;14.80;69.00;;;;;;4196331;27;20055;-48
2024/03/07 02:45:50;;;;;;;11.32;9.05;;;14.80;68.80;;;;;;4206879;28;20057;-50
2024/03/07 02:48:31;;;;;;;9.60;8.10;;;14.90;69.70;;;;;;4202753;28;20058;-48
2024/03/07 02:51:12;;;;;;;10.30;7.97;;;14.90;69.80;;;;;;4204136;28;20054;-48
2024/03/07 02:53:55;;;;;;;9.80;8.80;;;15.00;69.10;;;;;;4215310;28;20180;-49
2024/03/07 02:56:36;;;;;;;10.40;8.63;;;15.00;68.90;;;;;;4210763;27;20059;-48
2024/03/07 02:59:17;;;;;;;10.38;8.80;;;15.00;68.70;;;;;;4203594;28;20189;-47
2024/03/07 03:01:59;;;;;;;10.10;8.48;;;15.00;69.80;;;;;;4203644;28;20051;-53
2024/03/07 03:04:40;;;;;;;11.07;9.23;;;15.00;70.10;;;;;;4204281;28;20055;-49
2024/03/07 03:07:21;;;;;;;9.68;7.75;;;15.00;70.10;;;;;;4204870;28;20484;-49
2024/03/07 03:10:09;;;;;;;9.43;8.43;;;15.00;70.50;;;;;;4220888;28;20058;-49
2024/03/07 03:12:50;;;;;;;12.48;8.45;;;15.00;70.50;;;;;;4189553;28;20059;-49
2024/03/07 03:15:31;;;;;;;9.65;8.65;;;15.00;70.60;;;;;;4208780;27;20054;-51
2024/03/07 03:18:12;;;;;;;9.55;8.52;;;15.00;70.80;;;;;;4212206;27;20067;-48
2024/03/07 03:20:54;;;;;;;13.60;9.48;;;15.00;71.30;;;;;;4216557;27;20522;-49
2024/03/07 03:23:35;;;;;;;9.60;8.60;;;15.10;70.90;;;;;;4225932;27;20054;-52
2024/03/07 03:26:17;;;;;;;10.55;8.50;;;15.20;70.60;;;;;;4208714;28;20124;-50
2024/03/07 03:28:58;;;;;;;10.23;8.57;;;15.20;70.60;;;;;;4210090;27;20109;-52
2024/03/07 03:31:40;;;;;;;10.55;9.00;;;15.20;70.10;;;;;;4209685;27;20079;-48
2024/03/07 03:34:20;;;;;;;9.83;8.57;;;15.20;70.20;;;;;;4227564;27;20058;-49
2024/03/07 03:37:01;;;;;;;10.05;8.55;;;15.20;70.40;;;;;;4242363;27;20054;-51
2024/03/07 03:39:42;;;;;;;11.75;8.80;;;15.20;70.40;;;;;;4243162;27;20062;-48
2024/03/07 03:42:25;;;;;;;10.68;8.80;;;15.30;70.20;;;;;;4221000;27;20463;-48
2024/03/07 03:45:09;;;;;;;10.05;8.73;;;15.20;70.10;;;;;;4221597;27;20062;-49
2024/03/07 03:47:50;;;;;;;9.65;8.20;;;15.20;70.20;;;;;;4211899;27;20075;-52
2024/03/07 03:50:31;;;;;;;10.00;8.45;;;15.30;70.20;;;;;;4217235;27;20057;-49
2024/03/07 03:53:12;;;;;;;9.85;8.73;;;15.30;70.10;;;;;;4229086;27;20052;-47
2024/03/07 03:55:53;;;;;;;9.55;8.55;;;15.30;70.10;;;;;;4210981;27;20059;-46
2024/03/07 03:58:35;;;;;;;10.25;9.15;;;15.30;70.70;;;;;;4225478;27;20069;-49
2024/03/07 04:01:16;;;;;;;10.10;9.00;;;15.30;70.20;;;;;;4225909;27;20415;-48
2024/03/07 04:03:57;;;;;;;10.82;9.68;;;15.40;69.70;;;;;;4214402;27;20047;-52
2024/03/07 04:06:39;;;;;;;11.25;9.50;;;15.40;69.30;;;;;;4215951;27;20061;-49
2024/03/07 04:09:20;;;;;;;9.60;8.68;;;15.40;70.00;;;;;;4208764;27;20059;-50
2024/03/07 04:12:01;;;;;;;10.00;8.73;;;15.40;69.90;;;;;;4199880;27;20082;-51
2024/03/07 04:14:44;;;;;;;10.30;9.15;;;15.40;69.70;;;;;;4211882;27;20059;-51
2024/03/07 04:17:25;;;;;;;12.38;9.63;;;15.40;69.30;;;;;;4208616;28;20067;-49
2024/03/07 04:20:07;;;;;;;12.32;8.93;;;15.40;69.30;;;;;;4210137;28;20055;-53
2024/03/07 04:22:49;;;;;;;12.75;10.02;;;15.50;69.20;;;;;;4213008;27;20053;-51
2024/03/07 04:25:31;;;;;;;12.13;10.07;;;15.40;67.60;;;;;;4221461;27;20511;-50
2024/03/07 04:28:12;;;;;;;10.35;9.25;;;15.50;67.80;;;;;;4220305;27;20046;-49
2024/03/07 04:30:54;;;;;;;10.93;9.75;;;15.50;68.60;;;;;;4223474;28;20054;-50
2024/03/07 04:33:35;;;;;;;13.20;9.80;;;15.50;68.70;;;;;;4223122;27;20051;-51
2024/03/07 04:36:16;;;;;;;11.25;9.95;;;15.50;68.30;;;;;;4222995;28;20051;-49
2024/03/07 04:38:57;;;;;;;11.27;9.77;;;15.50;68.50;;;;;;4193165;28;20067;-45
2024/03/07 04:41:38;;;;;;;11.70;10.15;;;15.50;68.40;;;;;;4207507;28;20063;-49
2024/03/07 04:44:22;;;;;;;11.10;9.95;;;15.50;68.10;;;;;;4204780;27;20058;-50
2024/03/07 04:47:05;;;;;;;11.60;9.77;;;15.50;68.10;;;;;;4206057;28;20059;-50
2024/03/07 04:49:46;;;;;;;11.95;10.38;;;15.40;68.60;;;;;;4206622;28;20507;-49
2024/03/07 04:52:27;;;;;;;11.75;10.55;;;15.30;68.20;;;;;;4235494;27;20181;-47
2024/03/07 04:55:10;;;;;;;14.02;11.10;;;15.40;68.80;;;;;;4239352;27;20050;-50
2024/03/07 04:57:51;;;;;;;13.70;11.82;;;15.40;68.50;;;;;;4188785;28;20048;-48
2024/03/07 05:00:32;;;;;;;;;;;15.40;67.30;;;;;;4191930;28;20523;-50
2024/03/07 05:03:14;;;;;;;17.13;13.43;;;15.40;67.50;;;;;;4197962;27;19942;-52
2024/03/07 05:05:57;;;;;;;17.00;13.93;;;15.40;66.70;;;;;;4229380;27;20054;-51
2024/03/07 05:08:38;;;;;;;19.85;13.93;;;15.40;65.60;;;;;;4211062;27;20071;-50
2024/03/07 05:11:19;;;;;;;18.80;15.65;;;15.40;65.90;;;;;;4205574;28;20416;-48
2024/03/07 05:14:00;;;;;;;21.08;15.70;;;15.50;64.60;;;;;;4209264;27;20050;-52
2024/03/07 05:16:43;;;;;;;20.05;15.88;;;15.40;65.20;;;;;;4222131;27;20058;-50
2024/03/07 05:19:28;;;;;;;23.25;16.85;;;15.40;64.70;;;;;;4188300;28;20133;-52
2024/03/07 05:22:13;;;;;;;22.30;17.73;;;15.30;65.20;;;;;;4202617;28;20086;-49
2024/03/07 05:24:56;;;;;;;21.15;16.25;;;15.30;65.20;;;;;;4191430;28;20105;-48
2024/03/07 05:27:38;;;;;;;23.77;17.20;;;15.30;64.60;;;;;;4190096;28;20182;-50
2024/03/07 05:30:19;;;;;;;20.05;16.20;;;15.30;65.80;;;;;;4205190;28;20400;-50
2024/03/07 05:33:01;;;;;;;23.73;18.33;;;15.30;66.50;;;;;;4204719;28;20055;-53
2024/03/07 05:35:44;;;;;;;24.65;17.63;;;15.30;67.00;;;;;;4193916;28;20433;-51
2024/03/07 05:38:28;;;;;;;24.88;17.67;;;15.30;67.40;;;;;;4210099;27;20062;-50
2024/03/07 05:41:10;;;;;;;19.60;15.50;;;15.30;67.40;;;;;;4211080;27;20063;-49
2024/03/07 05:43:52;;;;;;;21.25;16.52;;;15.30;68.00;;;;;;4234602;27;20069;-48
2024/03/07 05:46:34;;;;;;;21.02;16.30;;;15.40;67.80;;;;;;4192514;28;20541;-49
2024/03/07 05:49:16;;;;;;;20.30;15.35;;;15.40;68.10;;;;;;4190272;28;20145;-50
2024/03/07 05:51:59;;;;;;;21.63;16.33;;;15.50;68.90;;;;;;4204596;28;20059;-48
2024/03/07 05:54:40;;;;;;;18.80;15.38;;;15.50;68.10;;;;;;4189578;28;20055;-51
2024/03/07 05:57:21;;;;;;;;;;;15.40;68.30;;;;;;4196203;28;20055;-47
2024/03/07 06:00:09;;;;;;;22.33;16.40;;;15.40;68.50;;;;;;4237321;27;19928;-48
2024/03/07 06:02:52;;;;;;;23.33;16.40;;;15.40;69.00;;;;;;4189545;28;20377;-49
2024/03/07 06:05:32;;;;;;;26.47;19.43;;;15.30;68.60;;;;;;4201951;28;20066;-47
2024/03/07 06:08:16;;;;;;;26.50;18.17;;;15.40;66.50;;;;;;4206435;28;20498;-48
2024/03/07 06:10:59;;;;;;;26.67;18.55;;;15.40;65.60;;;;;;4204877;28;20047;-48
2024/03/07 06:13:41;;;;;;;33.60;18.15;;;15.40;64.60;;;;;;4200255;27;20065;-48
2024/03/07 06:16:25;;;;;;;36.88;17.73;;;15.30;65.60;;;;;;4228046;27;20153;-49
2024/03/07 06:19:07;;;;;;;35.50;19.38;;;15.40;66.30;;;;;;4188065;28;20504;-47
2024/03/07 06:21:52;;;;;;;33.70;18.65;;;15.30;65.10;;;;;;4187598;28;20059;-48
2024/03/07 06:24:35;;;;;;;40.75;18.27;;;15.20;64.40;;;;;;4205339;28;20051;-48
2024/03/07 06:27:26;;;;;;;35.55;21.48;;;15.10;64.30;;;;;;4220691;28;20070;-49
2024/03/07 06:30:09;;;;;;;32.65;20.85;;;15.10;63.60;;;;;;4211486;27;20517;-47
2024/03/07 06:32:50;;;;;;;32.42;20.83;;;15.10;64.20;;;;;;4233317;27;20042;-47
2024/03/07 06:35:31;;;;;;;37.67;21.73;;;15.10;66.10;;;;;;4218779;27;20486;-47
2024/03/07 06:38:13;;;;;;;30.83;21.95;;;15.10;65.80;;;;;;4222589;27;20054;-45
2024/03/07 06:40:56;;;;;;;32.75;22.25;;;15.10;66.00;;;;;;4220438;27;20050;-47
2024/03/07 06:43:36;;;;;;;32.30;23.25;;;15.10;64.80;;;;;;4214879;28;20063;-46
2024/03/07 06:46:19;;;;;;;32.25;22.13;;;15.00;65.70;;;;;;4204973;28;20054;-49
2024/03/07 06:49:01;;;;;;;29.17;20.63;;;15.00;64.10;;;;;;4215533;28;20055;-47
2024/03/07 06:51:42;;;;;;;32.33;21.05;;;14.90;64.00;;;;;;4208219;28;20132;-46
2024/03/07 06:54:23;;;;;;;31.23;20.25;;;14.90;64.10;;;;;;4203264;28;20120;-46
2024/03/07 06:57:06;;;;;;;22.10;15.75;;;14.80;64.10;;;;;;4192036;28;20413;-50
2024/03/07 06:59:48;;;;;;;28.35;16.00;;;14.80;63.80;;;;;;4227917;27;20498;-45
2024/03/07 07:02:30;;;;;;;29.08;19.60;;;14.70;61.60;;;;;;4237687;27;20054;-45
2024/03/07 07:05:11;;;;;;;31.92;20.45;;;14.60;62.70;;;;;;4224359;27;20136;-47
2024/03/07 07:07:52;;;;;;;35.28;20.75;;;14.60;65.00;;;;;;4186900;28;20080;-44
2024/03/07 07:10:34;;;;;;;29.23;17.02;;;14.60;66.10;;;;;;4203559;28;20609;-48
2024/03/07 07:13:16;;;;;;;33.55;17.92;;;14.80;64.20;;;;;;4217706;28;20059;-47
2024/03/07 07:15:57;;;;;;;35.67;18.63;;;14.80;62.10;;;;;;4228641;27;20054;-49
2024/03/07 07:18:38;;;;;;;30.27;19.17;;;14.90;64.30;;;;;;4237275;27;20074;-47
2024/03/07 07:21:20;;;;;;;30.25;18.98;;;15.00;61.70;;;;;;4224803;27;20060;-49
2024/03/07 07:24:01;;;;;;;34.50;20.73;;;15.00;60.90;;;;;;4207710;28;20058;-50
2024/03/07 07:26:43;;;;;;;30.90;18.33;;;15.00;61.10;;;;;;4203498;28;20201;-47
2024/03/07 07:29:26;;;;;;;31.98;20.88;;;15.00;60.50;;;;;;4204121;28;20105;-47
2024/03/07 07:32:07;;;;;;;31.80;18.88;;;14.90;61.80;;;;;;4208249;27;20055;-48
2024/03/07 07:34:49;;;;;;;32.85;19.73;;;15.00;63.10;;;;;;4203762;28;20189;-47
2024/03/07 07:37:30;;;;;;;29.90;19.58;;;15.00;62.80;;;;;;4215516;28;20058;-49
2024/03/07 07:40:14;;;;;;;30.10;20.88;;;15.10;61.60;;;;;;4219895;28;20053;-49
2024/03/07 07:42:55;;;;;;;28.98;20.48;;;15.10;62.90;;;;;;4201702;28;20055;-46
2024/03/07 07:45:38;;;;;;;21.67;16.85;;;15.10;60.90;;;;;;4187283;28;20106;-49
2024/03/07 07:48:19;;;;;;;25.13;16.75;;;15.10;59.50;;;;;;4201261;28;20055;-46
2024/03/07 07:51:01;;;;;;;28.80;19.88;;;15.20;59.20;;;;;;4206478;27;20051;-46
2024/03/07 07:53:43;;;;;;;33.40;18.13;;;15.10;59.60;;;;;;4204882;28;20063;-46
2024/03/07 07:56:24;;;;;;;27.50;18.50;;;15.20;61.50;;;;;;4220097;28;20124;-44
2024/03/07 07:59:05;;;;;;;;;;;15.20;60.50;;;;;;4204064;28;20496;-49
2024/03/07 08:01:48;;;;;;;27.25;17.60;;;15.20;61.60;;;;;;4201453;28;20403;-48
2024/03/07 08:04:29;;;;;;;25.02;15.98;;;15.20;60.90;;;;;;4211774;27;20051;-44
2024/03/07 08:07:10;;;;;;;29.45;18.80;;;15.10;61.00;;;;;;4202985;27;20117;-46
2024/03/07 08:09:51;;;;;;;25.80;16.35;;;15.10;63.00;;;;;;4219629;28;20176;-50
2024/03/07 08:12:33;;;;;;;25.17;16.70;;;15.10;63.20;;;;;;4226648;27;20506;-49
2024/03/07 08:15:15;;;;;;;29.38;17.70;;;15.10;63.50;;;;;;4226720;27;20054;-47
2024/03/07 08:17:59;;;;;;;25.40;17.25;;;15.00;64.30;;;;;;4217439;27;20054;-49
2024/03/07 08:20:42;;;;;;;27.00;19.55;;;15.00;63.00;;;;;;4240336;27;20050;-50
2024/03/07 08:23:25;;;;;;;25.92;16.63;;;14.90;60.00;;;;;;4225070;27;20050;-51
2024/03/07 08:26:06;;;;;;;25.83;16.17;;;14.80;60.00;;;;;;4206536;28;20093;-47
2024/03/07 08:28:47;;;;;;;26.17;16.30;;;14.80;63.50;;;;;;4236577;27;20088;-48
2024/03/07 08:31:28;;;;;;;23.67;15.02;;;14.90;64.90;;;;;;4230800;27;20050;-48
2024/03/07 08:34:11;;;;;;;19.92;11.50;;;15.00;64.90;;;;;;4224727;27;20070;-48
2024/03/07 08:36:52;;;;;;;22.10;13.98;;;15.10;65.30;;;;;;4239014;27;20058;-47
2024/03/07 08:39:33;;;;;;;19.40;12.48;;;15.10;65.60;;;;;;4231689;27;20042;-49
2024/03/07 08:42:16;;;;;;;21.80;14.15;;;15.10;65.20;;;;;;4190968;28;20051;-46
2024/03/07 08:44:57;;;;;;;22.20;12.70;;;15.10;64.30;;;;;;4228153;27;20058;-48
2024/03/07 08:47:39;;;;;;;25.80;17.50;;;15.10;64.80;;;;;;4190267;28;20555;-48
2024/03/07 08:50:22;;;;;;;23.90;15.20;;;15.10;63.80;;;;;;4212140;28;20057;-48
2024/03/07 08:53:05;;;;;;;20.02;14.70;;;15.00;63.40;;;;;;4222915;27;20051;-47
2024/03/07 08:55:46;;;;;;;24.58;15.65;;;15.00;64.20;;;;;;4193714;28;20138;-47
2024/03/07 08:58:28;;;;;;;20.73;15.88;;;14.90;65.00;;;;;;4176254;28;20043;-45
2024/03/07 09:01:09;;;;;;;22.60;14.73;;;15.00;62.50;;;;;;4213439;28;20054;-49
2024/03/07 09:03:50;;;;;;;23.02;14.63;;;15.00;63.90;;;;;;4191246;28;20400;-49
2024/03/07 09:06:32;;;;;;;21.52;14.85;;;15.10;65.30;;;;;;4190326;28;20067;-48
2024/03/07 09:09:13;;;;;;;22.77;14.63;;;15.10;62.10;;;;;;4188638;28;20439;-46
2024/03/07 09:11:55;;;;;;;22.05;14.88;;;15.10;60.20;;;;;;4191040;28;20048;-51
2024/03/07 09:14:37;;;;;;;22.27;14.45;;;15.10;60.50;;;;;;4200704;27;20399;-47
2024/03/07 09:17:18;;;;;;;21.80;13.63;;;15.10;62.70;;;;;;4238928;27;20050;-49
2024/03/07 09:20:02;;;;;;;19.27;12.68;;;15.20;64.30;;;;;;4228464;27;20051;-49
2024/03/07 09:22:45;;;;;;;20.02;14.45;;;15.10;63.30;;;;;;4228244;27;20058;-51
2024/03/07 09:25:27;;;;;;;22.38;13.80;;;15.10;61.40;;;;;;4238710;27;20102;-45
2024/03/07 09:28:07;;;;;;;;;;;15.20;62.60;;;;;;4239182;27;20054;-47
2024/03/07 09:30:48;;;;;;;20.20;13.98;;;15.10;64.10;;;;;;4239508;27;20003;-49
2024/03/07 09:33:31;;;;;;;20.55;13.20;;;15.10;65.00;;;;;;4212571;27;20574;-48
2024/03/07 09:36:12;;;;;;;19.55;12.85;;;15.20;64.80;;;;;;4219511;27;20067;-50
2024/03/07 09:38:54;;;;;;;17.88;12.55;;;15.20;65.10;;;;;;4219698;27;20093;-48
2024/03/07 09:41:39;;;;;;;20.13;13.50;;;15.30;65.40;;;;;;4221329;28;20069;-48
2024/03/07 09:44:23;;;;;;;19.20;12.90;;;15.30;65.10;;;;;;4217772;27;20076;-48
2024/03/07 09:47:05;;;;;;;18.27;12.23;;;15.40;65.00;;;;;;4220041;28;20407;-48
2024/03/07 09:49:47;;;;;;;20.55;13.85;;;15.40;64.90;;;;;;4219801;27;20050;-50
2024/03/07 09:52:30;;;;;;;18.35;12.57;;;15.40;65.10;;;;;;4191146;28;20051;-49
2024/03/07 09:55:13;;;;;;;20.52;13.23;;;15.40;63.50;;;;;;4188034;28;20071;-49
2024/03/07 09:57:55;;;;;;;20.45;13.45;;;15.30;64.50;;;;;;4205566;28;20051;-48
2024/03/07 10:00:40;;;;;;;19.08;13.05;;;15.30;65.10;;;;;;4196057;28;20067;-49
2024/03/07 10:03:23;;;;;;;19.63;14.27;;;15.30;65.00;;;;;;4220288;28;20055;-48
2024/03/07 10:06:06;;;;;;;22.38;13.30;;;15.20;65.10;;;;;;4217653;28;20043;-48
2024/03/07 10:08:47;;;;;;;23.52;12.77;;;15.20;65.50;;;;;;4189933;28;20052;-50
2024/03/07 10:11:29;;;;;;;21.17;13.75;;;15.20;65.50;;;;;;4205046;28;20051;-47
2024/03/07 10:14:10;;;;;;;18.48;12.45;;;15.20;65.80;;;;;;4198253;28;20154;-47
2024/03/07 10:16:56;;;;;;;21.17;12.88;;;15.40;65.20;;;;;;4198094;28;20133;-46
2024/03/07 10:19:37;;;;;;;22.90;14.60;;;15.40;65.20;;;;;;4219075;27;20059;-46
2024/03/07 10:22:18;;;;;;;21.83;13.70;;;15.50;65.20;;;;;;4220646;27;20053;-50
2024/03/07 10:25:00;;;;;;;;;;;15.50;64.80;;;;;;4205189;28;20047;-45
2024/03/07 10:27:44;;;;;;;21.27;13.87;;;15.60;65.50;;;;;;4231179;27;19927;-47
2024/03/07 10:30:25;;;;;;;23.40;14.52;;;15.60;65.00;;;;;;4187627;28;20308;-47
2024/03/07 10:33:08;;;;;;;23.95;15.15;;;15.60;64.30;;;;;;4196564;28;20059;-51
2024/03/07 10:35:50;;;;;;;24.55;14.55;;;15.60;64.00;;;;;;4188459;28;20051;-48
2024/03/07 10:38:31;;;;;;;23.75;17.90;;;15.50;63.00;;;;;;4187418;28;20060;-45
2024/03/07 10:41:15;;;;;;;27.15;16.73;;;15.50;62.30;;;;;;4195013;28;20445;-48
2024/03/07 10:43:59;;;;;;;19.75;14.85;;;15.50;63.20;;;;;;4221046;28;20058;-48
2024/03/07 10:46:42;;;;;;;20.92;13.98;;;15.50;62.40;;;;;;4220049;28;20074;-48
2024/03/07 10:49:28;;;;;;;21.85;14.15;;;15.60;60.90;;;;;;4198024;28;20055;-47
2024/03/07 10:52:19;;;;;;;24.17;16.02;;;15.50;60.30;;;;;;4189890;28;20191;-50
2024/03/07 10:55:11;;;;;;;23.80;16.45;;;15.50;61.40;;;;;;4204324;28;20051;-48
2024/03/07 10:58:00;;;;;;;24.08;14.52;;;15.50;60.00;;;;;;4203210;28;20093;-49
2024/03/07 11:00:45;;;;;;;22.25;14.38;;;15.50;61.80;;;;;;4192182;28;20067;-46
2024/03/07 11:03:28;;;;;;;22.38;14.85;;;15.50;62.10;;;;;;4203748;28;20385;-45
2024/03/07 11:06:11;;;;;;;23.10;15.07;;;15.50;62.00;;;;;;4216874;28;20400;-46
2024/03/07 11:08:54;;;;;;;21.98;14.68;;;15.50;61.20;;;;;;4204044;28;20178;-45
2024/03/07 11:11:35;;;;;;;22.48;15.20;;;15.50;61.00;;;;;;4220525;28;20157;-48
2024/03/07 11:14:18;;;;;;;22.50;15.05;;;15.40;59.90;;;;;;4220292;28;20054;-47
2024/03/07 11:17:03;;;;;;;20.80;15.13;;;15.40;59.60;;;;;;4221181;28;20404;-47
2024/03/07 11:19:47;;;;;;;22.20;14.13;;;15.40;60.20;;;;;;4209151;28;20132;-47
2024/03/07 11:22:32;;;;;;;20.98;13.68;;;15.40;59.60;;;;;;4211306;27;20721;-47
2024/03/07 11:25:13;;;;;;;23.48;16.75;;;15.30;60.80;;;;;;4205009;27;20389;-51
2024/03/07 11:27:57;;;;;;;22.33;14.25;;;15.30;60.70;;;;;;4209211;28;20055;-47
2024/03/07 11:30:38;;;;;;;20.67;13.48;;;15.30;60.00;;;;;;4215173;28;20530;-48
2024/03/07 11:33:23;;;;;;;21.63;14.77;;;15.30;59.00;;;;;;4237432;27;20054;-49
2024/03/07 11:36:04;;;;;;;22.50;14.73;;;15.20;60.10;;;;;;4215350;27;20177;-46
2024/03/07 11:38:47;;;;;;;19.63;14.07;;;15.20;60.10;;;;;;4208775;28;20461;-44
2024/03/07 11:41:28;;;;;;;21.83;11.82;;;15.20;60.70;;;;;;4217839;27;20165;-47
2024/03/07 11:44:12;;;;;;;20.10;14.70;;;15.20;60.30;;;;;;4223719;27;20058;-47
2024/03/07 11:46:53;;;;;;;20.77;17.13;;;15.20;60.70;;;;;;4222287;28;20074;-51
2024/03/07 11:49:36;;;;;;;20.83;15.45;;;15.10;59.30;;;;;;4206810;28;20412;-46
2024/03/07 11:52:17;;;;;;;19.83;14.32;;;15.10;59.30;;;;;;4190643;28;20534;-49
2024/03/07 11:55:03;;;;;;;20.35;14.95;;;15.10;59.70;;;;;;4196305;28;20059;-46
2024/03/07 11:57:47;;;;;;;18.30;13.02;;;15.10;60.00;;;;;;4205813;28;20054;-48
2024/03/07 12:00:34;;;;;;;20.30;13.70;;;15.10;60.50;;;;;;4206272;28;20140;-47
2024/03/07 12:03:17;;;;;;;18.55;13.30;;;15.20;60.50;;;;;;4217236;27;20114;-48
2024/03/07 12:06:00;;;;;;;18.98;13.45;;;15.20;60.00;;;;;;4219878;27;20192;-47
2024/03/07 12:08:42;;;;;;;18.10;11.80;;;15.20;59.80;;;;;;4205448;28;20531;-46
2024/03/07 12:11:25;;;;;;;;;;;15.20;61.20;;;;;;4206411;28;20055;-48
2024/03/07 12:14:07;;;;;;;18.38;12.15;;;15.20;61.10;;;;;;4208224;28;20382;-47
2024/03/07 12:16:49;;;;;;;17.15;13.38;;;15.20;59.60;;;;;;4215215;27;20082;-47
2024/03/07 12:19:31;;;;;;;16.25;12.07;;;15.20;59.20;;;;;;4210745;28;20177;-49
2024/03/07 12:22:22;;;;;;;18.48;12.52;;;15.10;59.40;;;;;;4214636;27;20337;-48
2024/03/07 12:25:08;;;;;;;17.58;12.48;;;15.00;59.50;;;;;;4205886;28;20063;-48
2024/03/07 12:28:02;;;;;;;18.20;13.15;;;15.00;60.60;;;;;;4220611;27;20050;-48
2024/03/07 12:30:51;;;;;;;17.25;12.48;;;14.90;59.10;;;;;;4204072;28;20071;-50
2024/03/07 12:33:38;;;;;;;13.85;11.15;;;14.80;58.60;;;;;;4206588;28;20149;-50
2024/03/07 12:36:22;;;;;;;15.15;11.23;;;14.70;59.30;;;;;;4217983;27;20050;-51
2024/03/07 12:39:18;;;;;;;18.02;11.75;;;14.70;59.90;;;;;;4196376;28;20177;-47
2024/03/07 12:41:59;;;;;;;18.80;13.18;;;14.60;60.20;;;;;;4205189;28;20050;-48
2024/03/07 12:44:42;;;;;;;18.83;12.38;;;14.60;60.00;;;;;;4187838;28;20452;-52
2024/03/07 12:47:25;;;;;;;18.08;11.40;;;14.50;60.60;;;;;;4213321;27;20050;-48
2024/03/07 12:50:07;;;;;;;14.35;10.70;;;14.40;62.40;;;;;;4214520;27;20392;-47
2024/03/07 12:52:49;;;;;;;16.23;11.35;;;14.40;61.80;;;;;;4220821;27;20070;-47
2024/03/07 12:55:32;;;;;;;17.50;11.30;;;14.40;62.30;;;;;;4205821;28;20079;-46
2024/03/07 12:58:13;;;;;;;18.70;12.20;;;14.40;63.00;;;;;;4194548;28;20146;-47
2024/03/07 13:00:55;;;;;;;17.52;12.40;;;14.40;63.20;;;;;;4192268;28;20067;-47
2024/03/07 13:03:36;;;;;;;16.52;11.63;;;14.40;63.50;;;;;;4227288;27;20099;-47
2024/03/07 13:06:25;;;;;;;15.43;10.95;;;14.50;63.60;;;;;;4238078;27;20117;-47
2024/03/07 13:09:10;;;;;;;13.65;10.73;;;14.50;64.50;;;;;;4192561;28;20047;-48
2024/03/07 13:11:53;;;;;;;16.60;12.10;;;14.50;64.40;;;;;;4202154;28;20400;-48
2024/03/07 13:14:35;;;;;;;16.70;10.95;;;14.50;62.50;;;;;;4192934;28;20541;-47
2024/03/07 13:17:17;;;;;;;16.50;11.63;;;14.50;62.20;;;;;;4201130;27;20047;-47
2024/03/07 13:19:59;;;;;;;14.95;12.43;;;14.50;62.90;;;;;;4221463;28;20507;-48
2024/03/07 13:22:43;;;;;;;14.70;10.45;;;14.50;63.10;;;;;;4222237;27;20054;-46
2024/03/07 13:25:25;;;;;;;15.20;11.57;;;14.60;63.40;;;;;;4222714;28;20054;-50
2024/03/07 13:28:13;;;;;;;16.23;11.60;;;14.60;63.50;;;;;;4214338;27;20483;-47
2024/03/07 13:30:54;;;;;;;17.02;11.73;;;14.60;63.00;;;;;;4222321;27;20104;-49
2024/03/07 13:33:36;;;;;;;15.52;12.43;;;14.70;62.80;;;;;;4219695;27;20054;-47
2024/03/07 13:36:22;;;;;;;19.60;11.52;;;14.70;62.10;;;;;;4213683;27;20070;-52
2024/03/07 13:39:04;;;;;;;16.67;11.30;;;14.60;62.70;;;;;;4209135;28;20039;-51
2024/03/07 13:41:48;;;;;;;17.10;11.32;;;14.60;62.80;;;;;;4221755;27;20062;-47
2024/03/07 13:44:30;;;;;;;;;;;14.60;63.00;;;;;;4203847;28;20185;-47
2024/03/07 13:47:12;;;;;;;15.30;10.00;;;14.60;64.00;;;;;;4219573;27;20311;-47
2024/03/07 13:49:53;;;;;;;14.23;10.00;;;14.50;64.50;;;;;;4209757;27;20055;-47